createdAt,value
2023-06-12T00:00:48.429Z,12.17
2023-06-12T00:06:49.633Z,11.98
2023-06-12T00:12:50.901Z,11.78
2023-06-12T00:18:53.021Z,11.63
2023-06-12T00:24:54.264Z,11.56
2023-06-12T00:30:55.699Z,11.47
2023-06-12T00:36:58.104Z,11.37
2023-06-12T00:42:59.337Z,11.22
2023-06-12T00:49:02.552Z,11.08
2023-06-12T00:55:04.058Z,10.99
2023-06-12T01:01:05.338Z,10.93
2023-06-12T01:07:07.099Z,10.79
2023-06-12T01:13:10.921Z,10.68
2023-06-12T01:19:12.164Z,10.58
2023-06-12T01:25:14.214Z,10.47
2023-06-12T01:31:15.479Z,10.41
2023-06-12T01:37:16.764Z,10.40
2023-06-12T01:43:18.023Z,10.36
2023-06-12T01:49:19.231Z,10.32
2023-06-12T01:55:22.362Z,10.30
2023-06-12T02:01:25.025Z,10.26
2023-06-12T02:07:26.471Z,10.17
2023-06-12T02:13:27.709Z,10.06
2023-06-12T02:19:29.744Z,9.99
2023-06-12T02:25:33.278Z,9.88
2023-06-12T02:31:34.799Z,9.81
2023-06-12T02:37:36.304Z,9.76
2023-06-12T02:43:37.601Z,9.78
2023-06-12T02:49:45.153Z,9.79
2023-06-12T02:55:46.587Z,9.81
2023-06-12T03:01:48.038Z,9.81
2023-06-12T03:07:49.644Z,9.91
2023-06-12T03:13:51.086Z,10.06
2023-06-12T03:19:52.292Z,10.18
2023-06-12T03:25:53.489Z,10.24
2023-06-12T03:31:56.062Z,10.23
2023-06-12T03:37:57.282Z,10.21
2023-06-12T03:43:58.577Z,10.19
2023-06-12T03:49:59.791Z,10.15
2023-06-12T03:56:01.080Z,10.20
2023-06-12T04:02:02.508Z,10.31
2023-06-12T04:08:03.810Z,10.44
2023-06-12T04:14:05.006Z,10.60
2023-06-12T04:20:07.777Z,10.77
2023-06-12T04:26:09.086Z,10.94
2023-06-12T04:32:10.431Z,11.07
2023-06-12T04:38:12.028Z,11.21
2023-06-12T04:44:13.612Z,11.44
2023-06-12T04:50:15.112Z,11.58
2023-06-12T04:56:21.386Z,11.81
2023-06-12T05:02:22.946Z,12.09
2023-06-12T05:08:24.229Z,12.36
2023-06-12T05:14:25.565Z,12.60
2023-06-12T05:20:26.938Z,12.84
2023-06-12T05:26:28.176Z,13.12
2023-06-12T05:32:29.400Z,13.38
2023-06-12T05:38:30.958Z,13.58
2023-06-12T05:44:32.397Z,13.76
2023-06-12T05:50:33.731Z,14.02
2023-06-12T05:56:34.981Z,14.33
2023-06-12T06:02:36.540Z,14.69
2023-06-12T06:08:37.909Z,15.07
2023-06-12T06:14:40.310Z,15.41
2023-06-12T06:20:41.533Z,15.70
2023-06-12T06:26:42.753Z,16.07
2023-06-12T06:32:44.122Z,16.37
2023-06-12T06:38:45.344Z,16.69
2023-06-12T06:44:46.584Z,17.11
2023-06-12T06:50:47.825Z,17.45
2023-06-12T06:56:49.739Z,17.74
2023-06-12T07:02:51.058Z,18.08
2023-06-12T07:08:54.379Z,18.50
2023-06-12T07:14:55.971Z,18.86
2023-06-12T07:20:57.190Z,18.97
2023-06-12T07:26:58.411Z,19.28
2023-06-12T07:32:59.648Z,19.73
2023-06-12T07:39:01.194Z,20.31
2023-06-12T07:45:02.475Z,20.62
2023-06-12T07:51:03.737Z,21.06
2023-06-12T07:57:05.448Z,21.34
2023-06-12T08:03:25.217Z,21.67
2023-06-12T08:09:31.036Z,21.98
2023-06-12T08:15:32.350Z,22.32
2023-06-12T08:21:33.570Z,22.63
2023-06-12T08:27:34.915Z,22.85
2023-06-12T08:33:36.241Z,22.89
2023-06-12T08:39:37.619Z,22.86
2023-06-12T08:45:38.872Z,23.16
2023-06-12T08:51:40.091Z,23.56
2023-06-12T08:57:42.387Z,23.94
2023-06-12T09:03:43.745Z,24.27
2023-06-12T09:09:46.203Z,24.72
2023-06-12T09:15:47.544Z,25.05
2023-06-12T09:21:49.075Z,25.37
2023-06-12T09:27:51.074Z,25.75
2023-06-12T09:33:53.548Z,25.96
2023-06-12T09:39:54.887Z,26.01
2023-06-12T09:45:56.550Z,26.34
2023-06-12T09:51:59.694Z,26.66
2023-06-12T09:58:03.141Z,27.15
2023-06-12T10:04:04.903Z,27.73
2023-06-12T10:10:08.860Z,28.18
2023-06-12T10:16:10.134Z,28.33
2023-06-12T10:22:12.089Z,28.66
2023-06-12T10:28:13.327Z,28.75
2023-06-12T10:34:16.428Z,29.13
2023-06-12T10:40:23.988Z,29.87
2023-06-12T10:46:30.994Z,29.07
2023-06-12T10:52:32.414Z,29.08
2023-06-12T10:58:33.624Z,29.21
2023-06-12T11:04:34.935Z,29.31
2023-06-12T11:10:36.209Z,29.93
2023-06-12T11:16:37.505Z,30.35
2023-06-12T11:22:38.744Z,30.68
2023-06-12T11:28:40.005Z,31.27
2023-06-12T11:34:44.875Z,31.79
2023-06-12T11:40:46.201Z,32.38
2023-06-12T11:46:47.569Z,33.13
2023-06-12T11:52:50.029Z,33.33
2023-06-12T11:58:51.390Z,33.80
2023-06-12T12:04:52.655Z,33.97
2023-06-12T12:10:53.887Z,33.89
2023-06-12T12:16:55.088Z,34.08
2023-06-12T12:22:56.568Z,34.74
2023-06-12T12:28:58.108Z,34.78
2023-06-12T12:34:59.627Z,34.57
2023-06-12T12:41:01.117Z,34.76
2023-06-12T12:47:02.359Z,35.49
2023-06-12T12:53:03.603Z,35.22
2023-06-12T12:59:07.914Z,35.71
2023-06-12T13:05:09.278Z,35.64
2023-06-12T13:11:10.610Z,36.02
2023-06-12T13:17:11.897Z,35.69
2023-06-12T13:23:13.123Z,36.19
2023-06-12T13:29:14.385Z,35.79
2023-06-12T13:35:15.756Z,35.72
2023-06-12T13:41:17.882Z,36.62
2023-06-12T13:47:19.111Z,36.64
2023-06-12T13:53:20.498Z,36.83
2023-06-12T13:59:21.827Z,36.91
2023-06-12T14:05:23.215Z,36.28
2023-06-12T14:11:24.540Z,36.46
2023-06-12T14:17:25.902Z,36.79
2023-06-12T14:23:27.429Z,36.62
2023-06-12T14:29:28.627Z,37.42
2023-06-12T14:35:30.015Z,37.41
2023-06-12T14:41:31.232Z,36.86
2023-06-12T14:47:32.496Z,36.81
2023-06-12T14:53:34.512Z,37.34
2023-06-12T14:59:35.901Z,37.93
2023-06-12T15:05:37.164Z,37.94
2023-06-12T15:11:38.358Z,37.85
2023-06-12T15:17:39.760Z,37.76
2023-06-12T15:23:41.358Z,37.63
2023-06-12T15:29:42.644Z,36.96
2023-06-12T15:35:45.909Z,36.90
2023-06-12T15:41:47.132Z,36.83
2023-06-12T15:47:48.398Z,36.16
2023-06-12T15:53:49.723Z,35.75
2023-06-12T15:59:51.153Z,36.03
2023-06-12T16:05:52.451Z,35.63
2023-06-12T16:11:53.700Z,35.53
2023-06-12T16:17:55.031Z,35.90
2023-06-12T16:23:56.304Z,35.59
2023-06-12T16:29:57.574Z,35.91
2023-06-12T16:35:58.830Z,35.95
2023-06-12T16:42:00.145Z,35.99
2023-06-12T16:48:01.520Z,35.92
2023-06-12T16:54:02.815Z,34.83
2023-06-12T17:00:04.623Z,34.69
2023-06-12T17:06:05.828Z,34.54
2023-06-12T17:12:07.346Z,34.45
2023-06-12T17:18:08.642Z,33.80
2023-06-12T17:24:10.044Z,33.25
2023-06-12T17:30:11.685Z,32.48
2023-06-12T17:36:13.046Z,31.52
2023-06-12T17:42:14.464Z,31.55
2023-06-12T17:48:15.852Z,30.73
2023-06-12T17:54:17.100Z,29.84
2023-06-12T18:00:18.388Z,28.25
2023-06-12T18:06:19.611Z,26.73
2023-06-12T18:12:20.904Z,25.37
2023-06-12T18:18:22.245Z,24.42
2023-06-12T18:24:24.709Z,23.67
2023-06-12T18:30:26.046Z,23.15
2023-06-12T18:36:27.358Z,22.54
2023-06-12T18:42:28.588Z,22.21
2023-06-12T18:48:29.803Z,21.88
2023-06-12T18:54:31.147Z,21.59
2023-06-12T19:00:32.495Z,21.28
2023-06-12T19:06:34.930Z,20.98
2023-06-12T19:12:36.482Z,20.73
2023-06-12T19:18:37.701Z,20.43
2023-06-12T19:24:39.554Z,20.15
2023-06-12T19:30:40.876Z,19.87
2023-06-12T19:36:42.191Z,19.59
2023-06-12T19:42:43.392Z,19.33
2023-06-12T19:48:44.832Z,19.06
2023-06-12T19:54:46.057Z,18.78
2023-06-12T20:00:47.353Z,18.51
2023-06-12T20:06:48.590Z,18.20
2023-06-12T20:12:49.827Z,17.94
2023-06-12T20:18:51.073Z,17.68
2023-06-12T20:24:52.611Z,17.40
2023-06-12T20:30:53.967Z,17.15
2023-06-12T20:36:55.278Z,16.92
2023-06-12T20:42:56.496Z,16.69
2023-06-12T20:48:57.728Z,16.51
2023-06-12T20:54:58.972Z,16.37
2023-06-12T21:01:00.263Z,16.26
2023-06-12T21:07:01.522Z,16.15
2023-06-12T21:13:02.719Z,16.00
2023-06-12T21:19:04.005Z,15.85
2023-06-12T21:25:05.304Z,15.67
2023-06-12T21:31:06.658Z,15.46
2023-06-12T21:37:22.164Z,15.28
2023-06-12T21:43:24.761Z,15.10
2023-06-12T21:49:26.114Z,14.95
2023-06-12T21:55:27.345Z,14.82
2023-06-12T22:01:30.438Z,14.72
2023-06-12T22:07:31.876Z,14.58
2023-06-12T22:13:33.524Z,14.44
2023-06-12T22:19:34.858Z,14.30
2023-06-12T22:25:36.374Z,14.18
2023-06-12T22:31:37.759Z,14.05
2023-06-12T22:37:38.992Z,13.91
2023-06-12T22:43:40.226Z,13.76
2023-06-12T22:49:41.424Z,13.63
2023-06-12T22:55:42.838Z,13.50
2023-06-12T23:01:44.304Z,13.31
2023-06-12T23:07:47.018Z,13.14
2023-06-12T23:13:48.247Z,12.97
2023-06-12T23:19:50.798Z,12.78
2023-06-12T23:25:54.970Z,12.60
2023-06-12T23:31:56.558Z,12.38
2023-06-12T23:37:58.002Z,12.18
2023-06-12T23:43:59.235Z,11.99
2023-06-12T23:50:00.540Z,11.83
2023-06-12T23:56:01.781Z,11.71
